ADDS METAR Data INFO
IDs: Format: Raw Decoded Include TAF

Data at: 0035 UTC 23 Oct 2017

KTDZ 222353Z AUTO 17009KT 10SM CLR 22/11 A3007 RMK AO2 SLP180 T02170106 10267 20217 53004
KTDZ 222253Z AUTO 16010KT 10SM CLR 23/11 A3006 RMK AO2 SLP176 T02280111
KTDZ 222153Z AUTO 18010KT 10SM CLR 24/12 A3006 RMK AO2 SLP176 T02440117
KTDZ 222053Z AUTO 19016G24KT 10SM CLR 26/12 A3006 RMK AO2 SLP175 T02610117 56016
KTDZ 221953Z AUTO 17018G25KT 10SM CLR 26/12 A3006 RMK AO2 SLP177 T02610122
KTDZ 221853Z AUTO 19016KT 10SM CLR 27/13 A3008 RMK AO2 SLP184 T02670133
KTDZ 221753Z AUTO 17018G24KT 10SM CLR 25/13 A3011 RMK AO2 SLP192 T02500133 10250 20122 58026
KTDZ 221653Z AUTO 19014KT 10SM CLR 24/13 A3015 RMK AO2 SLP206 T02390128
KTDZ 221553Z AUTO 20012KT 10SM CLR 22/12 A3017 RMK AO2 SLP214 T02220122
KTDZ 221453Z AUTO 20013KT 10SM CLR 20/12 A3018 RMK AO2 SLP219 T02000117 50008
KTDZ 221353Z AUTO 17010KT 10SM CLR 17/11 A3020 RMK AO2 SLP225 T01720111
KTDZ 221253Z AUTO 16009KT 10SM CLR 14/10 A3018 RMK AO2 SLP218 T01390100
KTDZ 221153Z AUTO 15007KT 10SM CLR 12/09 A3016 RMK AO2 SLP212 T01220094 10139 20117 58005
KTDZ 221053Z AUTO 14006KT 10SM CLR 12/09 A3017 RMK AO2 SLP214 T01170089
KTDZ 220953Z AUTO 14005KT 10SM CLR 12/09 A3017 RMK AO2 SLP215 T01220089
KTDZ 220853Z AUTO 16004KT 10SM CLR 13/09 A3017 RMK AO2 SLP216 T01280089 58002
KTDZ 220753Z AUTO 15005KT 10SM CLR 12/08 A3018 RMK AO2 SLP218 T01220083
KTDZ 220653Z AUTO 13004KT 10SM CLR 13/08 A3018 RMK AO2 SLP218 T01330083
KTDZ 220553Z AUTO 18004KT 10SM CLR 14/08 A3018 RMK AO2 SLP217 T01390078 10178 20128 55003
KTDZ 220453Z AUTO 16004KT 10SM CLR 14/08 A3017 RMK AO2 SLP214 T01390078 402390100
KTDZ 220353Z AUTO 00000KT 10SM CLR 15/07 A3018 RMK AO2 SLP217 T01500067
KTDZ 220253Z AUTO 17005KT 10SM CLR 15/06 A3019 RMK AO2 SLP221 T01500061 53004
KTDZ 220153Z AUTO 17007KT 10SM CLR 16/07 A3018 RMK AO2 SLP219 T01560067
KTDZ 220053Z AUTO 16004KT 10SM CLR 17/09 A3018 RMK AO2 SLP219 T01670089
KTDZ 212353Z AUTO 16005KT 10SM CLR 18/11 A3018 RMK AO2 SLP219 T01780106 10239 20172 53005
KTDZ 212253Z AUTO 13005KT 10SM CLR 20/11 A3017 RMK AO2 SLP215 T02000111
KTDZ 212153Z AUTO 15006KT 10SM CLR 23/12 A3017 RMK AO2 SLP215 T02280122
KTDZ 212053Z AUTO 16006KT 10SM CLR 23/13 A3016 RMK AO2 SLP213 T02280128 58012
KTDZ 211953Z AUTO 18009KT 10SM CLR 23/12 A3018 RMK AO2 SLP218 T02330122
KTDZ 211853Z AUTO 19007KT 10SM CLR 24/12 A3019 RMK AO2 SLP220 T02390117
KTDZ 211753Z AUTO 20008KT 10SM CLR 23/12 A3020 RMK AO2 SLP224 T02330122 10233 20100 58012
KTDZ 211653Z AUTO 20008KT 10SM CLR 23/12 A3022 RMK AO2 SLP230 T02280122
KTDZ 211553Z AUTO 19010KT 10SM CLR 21/12 A3023 RMK AO2 SLP237 T02110122
KTDZ 211453Z AUTO 20007KT 10SM CLR 18/12 A3024 RMK AO2 SLP237 T01830117 50003
KTDZ 211353Z AUTO 17007KT 10SM CLR 16/11 A3024 RMK AO2 SLP240 T01560106
KTDZ 211253Z AUTO 15004KT 10SM CLR 12/09 A3024 RMK AO2 SLP239 T01220089